sensor_id;sensor_type;location;lat;lon;timestamp;P1;durP1;ratioP1;P2;durP2;ratioP2
31004;SDS011;17676;52.254;4.490;2023-04-24T00:01:12;5.35;;;0.40;;
31004;SDS011;17676;52.254;4.490;2023-04-24T00:03:38;0.75;;;0.30;;
31004;SDS011;17676;52.254;4.490;2023-04-24T00:06:04;12.48;;;1.50;;
31004;SDS011;17676;52.254;4.490;2023-04-24T00:08:33;3.17;;;0.30;;
31004;SDS011;17676;52.254;4.490;2023-04-24T00:10:59;1.95;;;0.20;;
31004;SDS011;17676;52.254;4.490;2023-04-24T00:13:25;3.03;;;0.30;;
31004;SDS011;17676;52.254;4.490;2023-04-24T00:15:50;5.57;;;0.30;;
31004;SDS011;17676;52.254;4.490;2023-04-24T00:18:16;4.63;;;0.35;;
31004;SDS011;17676;52.254;4.490;2023-04-24T00:20:42;3.35;;;0.30;;
31004;SDS011;17676;52.254;4.490;2023-04-24T00:23:08;6.20;;;0.43;;
31004;SDS011;17676;52.254;4.490;2023-04-24T00:25:34;8.63;;;0.50;;
31004;SDS011;17676;52.254;4.490;2023-04-24T00:28:00;7.90;;;0.73;;
31004;SDS011;17676;52.254;4.490;2023-04-24T00:30:25;4.60;;;0.30;;
31004;SDS011;17676;52.254;4.490;2023-04-24T00:32:51;6.53;;;0.30;;
31004;SDS011;17676;52.254;4.490;2023-04-24T00:35:16;7.68;;;0.40;;
31004;SDS011;17676;52.254;4.490;2023-04-24T00:37:44;6.43;;;0.43;;
31004;SDS011;17676;52.254;4.490;2023-04-24T00:40:10;6.43;;;0.32;;
31004;SDS011;17676;52.254;4.490;2023-04-24T00:42:36;10.73;;;0.50;;
31004;SDS011;17676;52.254;4.490;2023-04-24T00:45:02;7.22;;;0.40;;
31004;SDS011;17676;52.254;4.490;2023-04-24T00:47:28;10.07;;;0.75;;
31004;SDS011;17676;52.254;4.490;2023-04-24T00:49:54;15.77;;;0.73;;
31004;SDS011;17676;52.254;4.490;2023-04-24T00:52:20;10.80;;;0.50;;
31004;SDS011;17676;52.254;4.490;2023-04-24T00:54:49;8.30;;;0.30;;
31004;SDS011;17676;52.254;4.490;2023-04-24T00:57:15;9.68;;;0.50;;
31004;SDS011;17676;52.254;4.490;2023-04-24T00:59:42;5.88;;;0.50;;
31004;SDS011;17676;52.254;4.490;2023-04-24T01:02:09;5.85;;;0.40;;
31004;SDS011;17676;52.254;4.490;2023-04-24T01:04:36;8.63;;;0.70;;
31004;SDS011;17676;52.254;4.490;2023-04-24T01:07:02;4.55;;;0.45;;
31004;SDS011;17676;52.254;4.490;2023-04-24T01:09:34;5.93;;;0.50;;
31004;SDS011;17676;52.254;4.490;2023-04-24T01:12:02;12.82;;;0.55;;
31004;SDS011;17676;52.254;4.490;2023-04-24T01:14:28;4.15;;;0.40;;
31004;SDS011;17676;52.254;4.490;2023-04-24T01:16:53;8.18;;;0.30;;
31004;SDS011;17676;52.254;4.490;2023-04-24T01:19:19;7.70;;;0.50;;
31004;SDS011;17676;52.254;4.490;2023-04-24T01:21:45;7.35;;;0.70;;
31004;SDS011;17676;52.254;4.490;2023-04-24T01:24:15;10.20;;;1.05;;
31004;SDS011;17676;52.254;4.490;2023-04-24T01:26:41;4.28;;;0.70;;
31004;SDS011;17676;52.254;4.490;2023-04-24T01:29:06;6.28;;;0.98;;
31004;SDS011;17676;52.254;4.490;2023-04-24T01:31:33;7.28;;;0.75;;
31004;SDS011;17676;52.254;4.490;2023-04-24T01:33:59;11.30;;;0.80;;
31004;SDS011;17676;52.254;4.490;2023-04-24T01:36:26;6.60;;;0.82;;
31004;SDS011;17676;52.254;4.490;2023-04-24T01:38:53;12.05;;;0.88;;
31004;SDS011;17676;52.254;4.490;2023-04-24T01:41:19;5.50;;;0.60;;
31004;SDS011;17676;52.254;4.490;2023-04-24T01:43:45;7.40;;;0.77;;
31004;SDS011;17676;52.254;4.490;2023-04-24T01:46:11;8.75;;;0.98;;
31004;SDS011;17676;52.254;4.490;2023-04-24T01:48:37;2.28;;;0.50;;
31004;SDS011;17676;52.254;4.490;2023-04-24T01:51:03;5.45;;;0.50;;
31004;SDS011;17676;52.254;4.490;2023-04-24T01:53:28;8.98;;;0.80;;
31004;SDS011;17676;52.254;4.490;2023-04-24T01:55:54;8.63;;;0.88;;
31004;SDS011;17676;52.254;4.490;2023-04-24T01:58:22;2.50;;;0.40;;
31004;SDS011;17676;52.254;4.490;2023-04-24T02:00:48;7.60;;;0.85;;
31004;SDS011;17676;52.254;4.490;2023-04-24T02:03:14;5.13;;;0.40;;
31004;SDS011;17676;52.254;4.490;2023-04-24T02:05:40;4.22;;;0.38;;
31004;SDS011;17676;52.254;4.490;2023-04-24T02:08:09;3.97;;;0.50;;
31004;SDS011;17676;52.254;4.490;2023-04-24T02:10:37;2.35;;;0.32;;
31004;SDS011;17676;52.254;4.490;2023-04-24T02:13:03;5.03;;;0.47;;
31004;SDS011;17676;52.254;4.490;2023-04-24T02:15:29;4.43;;;0.93;;
31004;SDS011;17676;52.254;4.490;2023-04-24T02:17:55;3.53;;;0.40;;
31004;SDS011;17676;52.254;4.490;2023-04-24T02:20:21;6.38;;;0.40;;
31004;SDS011;17676;52.254;4.490;2023-04-24T02:22:46;9.30;;;0.30;;
31004;SDS011;17676;52.254;4.490;2023-04-24T02:25:12;9.10;;;0.30;;
31004;SDS011;17676;52.254;4.490;2023-04-24T02:27:38;3.42;;;0.60;;
31004;SDS011;17676;52.254;4.490;2023-04-24T02:30:04;2.33;;;0.38;;
31004;SDS011;17676;52.254;4.490;2023-04-24T02:32:31;5.95;;;0.65;;
31004;SDS011;17676;52.254;4.490;2023-04-24T02:34:56;1.85;;;0.30;;
31004;SDS011;17676;52.254;4.490;2023-04-24T02:37:22;4.60;;;0.40;;
31004;SDS011;17676;52.254;4.490;2023-04-24T02:39:48;2.38;;;0.85;;
31004;SDS011;17676;52.254;4.490;2023-04-24T02:42:14;4.22;;;0.50;;
31004;SDS011;17676;52.254;4.490;2023-04-24T02:44:41;3.50;;;0.45;;
31004;SDS011;17676;52.254;4.490;2023-04-24T02:47:07;3.15;;;0.30;;
31004;SDS011;17676;52.254;4.490;2023-04-24T02:49:33;3.83;;;0.30;;
31004;SDS011;17676;52.254;4.490;2023-04-24T02:51:59;4.07;;;0.30;;
31004;SDS011;17676;52.254;4.490;2023-04-24T02:54:25;3.45;;;0.30;;
31004;SDS011;17676;52.254;4.490;2023-04-24T02:56:50;4.22;;;0.30;;
31004;SDS011;17676;52.254;4.490;2023-04-24T02:59:16;2.65;;;0.40;;
31004;SDS011;17676;52.254;4.490;2023-04-24T03:01:42;2.38;;;0.30;;
31004;SDS011;17676;52.254;4.490;2023-04-24T03:04:07;1.33;;;0.40;;
31004;SDS011;17676;52.254;4.490;2023-04-24T03:06:33;1.85;;;0.30;;
31004;SDS011;17676;52.254;4.490;2023-04-24T03:09:00;4.32;;;0.43;;
31004;SDS011;17676;52.254;4.490;2023-04-24T03:11:26;1.90;;;0.20;;
31004;SDS011;17676;52.254;4.490;2023-04-24T03:13:52;1.67;;;0.20;;
31004;SDS011;17676;52.254;4.490;2023-04-24T03:16:17;2.38;;;0.25;;
31004;SDS011;17676;52.254;4.490;2023-04-24T03:18:44;2.28;;;0.28;;
31004;SDS011;17676;52.254;4.490;2023-04-24T03:21:09;2.50;;;0.30;;
31004;SDS011;17676;52.254;4.490;2023-04-24T03:23:35;1.65;;;0.40;;
31004;SDS011;17676;52.254;4.490;2023-04-24T03:26:01;1.23;;;0.20;;
31004;SDS011;17676;52.254;4.490;2023-04-24T03:28:27;1.48;;;0.20;;
31004;SDS011;17676;52.254;4.490;2023-04-24T03:30:53;1.73;;;0.10;;
31004;SDS011;17676;52.254;4.490;2023-04-24T03:33:18;1.13;;;0.20;;
31004;SDS011;17676;52.254;4.490;2023-04-24T03:35:45;3.55;;;0.10;;
31004;SDS011;17676;52.254;4.490;2023-04-24T03:38:11;1.65;;;0.10;;
31004;SDS011;17676;52.254;4.490;2023-04-24T03:40:37;7.13;;;0.30;;
31004;SDS011;17676;52.254;4.490;2023-04-24T03:43:02;7.57;;;0.10;;
31004;SDS011;17676;52.254;4.490;2023-04-24T03:45:28;2.97;;;0.75;;
31004;SDS011;17676;52.254;4.490;2023-04-24T03:47:56;4.13;;;0.15;;
31004;SDS011;17676;52.254;4.490;2023-04-24T03:50:22;2.38;;;0.10;;
31004;SDS011;17676;52.254;4.490;2023-04-24T03:52:51;5.38;;;0.10;;
31004;SDS011;17676;52.254;4.490;2023-04-24T03:55:17;5.25;;;0.10;;
31004;SDS011;17676;52.254;4.490;2023-04-24T03:57:43;2.40;;;0.10;;
31004;SDS011;17676;52.254;4.490;2023-04-24T04:00:09;4.35;;;0.10;;
31004;SDS011;17676;52.254;4.490;2023-04-24T04:02:35;2.58;;;0.10;;
31004;SDS011;17676;52.254;4.490;2023-04-24T04:05:01;2.35;;;0.10;;
31004;SDS011;17676;52.254;4.490;2023-04-24T04:07:27;6.28;;;0.10;;
31004;SDS011;17676;52.254;4.490;2023-04-24T04:09:52;3.25;;;0.10;;
31004;SDS011;17676;52.254;4.490;2023-04-24T04:12:18;1.60;;;0.10;;
31004;SDS011;17676;52.254;4.490;2023-04-24T04:14:46;1.80;;;0.10;;
31004;SDS011;17676;52.254;4.490;2023-04-24T04:17:12;6.60;;;0.32;;
31004;SDS011;17676;52.254;4.490;2023-04-24T04:19:37;12.48;;;0.50;;
31004;SDS011;17676;52.254;4.490;2023-04-24T04:22:03;7.85;;;1.20;;
31004;SDS011;17676;52.254;4.490;2023-04-24T04:24:29;14.55;;;1.92;;
31004;SDS011;17676;52.254;4.490;2023-04-24T04:26:55;16.77;;;4.05;;
31004;SDS011;17676;52.254;4.490;2023-04-24T04:29:23;16.20;;;3.70;;
31004;SDS011;17676;52.254;4.490;2023-04-24T04:31:49;24.42;;;6.45;;
31004;SDS011;17676;52.254;4.490;2023-04-24T04:34:15;19.00;;;6.78;;
31004;SDS011;17676;52.254;4.490;2023-04-24T04:36:41;18.58;;;6.97;;
31004;SDS011;17676;52.254;4.490;2023-04-24T04:39:08;26.02;;;8.68;;
31004;SDS011;17676;52.254;4.490;2023-04-24T04:41:33;18.65;;;8.07;;
31004;SDS011;17676;52.254;4.490;2023-04-24T04:44:05;24.27;;;8.00;;
31004;SDS011;17676;52.254;4.490;2023-04-24T04:46:34;17.15;;;5.95;;
31004;SDS011;17676;52.254;4.490;2023-04-24T04:49:02;18.75;;;5.28;;
31004;SDS011;17676;52.254;4.490;2023-04-24T04:51:28;17.50;;;5.13;;
31004;SDS011;17676;52.254;4.490;2023-04-24T04:53:54;22.60;;;5.60;;
31004;SDS011;17676;52.254;4.490;2023-04-24T04:56:20;14.13;;;5.63;;
31004;SDS011;17676;52.254;4.490;2023-04-24T04:58:47;22.42;;;6.88;;
31004;SDS011;17676;52.254;4.490;2023-04-24T05:01:12;16.90;;;8.93;;
31004;SDS011;17676;52.254;4.490;2023-04-24T05:03:38;24.80;;;11.52;;
31004;SDS011;17676;52.254;4.490;2023-04-24T05:06:04;35.05;;;15.13;;
31004;SDS011;17676;52.254;4.490;2023-04-24T05:08:30;31.92;;;15.90;;
31004;SDS011;17676;52.254;4.490;2023-04-24T05:10:56;34.38;;;17.00;;
31004;SDS011;17676;52.254;4.490;2023-04-24T05:13:21;32.00;;;16.90;;
31004;SDS011;17676;52.254;4.490;2023-04-24T05:15:48;43.25;;;17.55;;
31004;SDS011;17676;52.254;4.490;2023-04-24T05:18:13;40.35;;;18.20;;
31004;SDS011;17676;52.254;4.490;2023-04-24T05:20:40;30.15;;;16.63;;
31004;SDS011;17676;52.254;4.490;2023-04-24T05:23:08;37.88;;;16.77;;
31004;SDS011;17676;52.254;4.490;2023-04-24T05:25:33;31.60;;;16.02;;
31004;SDS011;17676;52.254;4.490;2023-04-24T05:28:00;28.90;;;13.48;;
31004;SDS011;17676;52.254;4.490;2023-04-24T05:30:26;30.40;;;12.55;;
31004;SDS011;17676;52.254;4.490;2023-04-24T05:32:52;32.40;;;12.77;;
31004;SDS011;17676;52.254;4.490;2023-04-24T05:35:17;30.55;;;11.90;;
31004;SDS011;17676;52.254;4.490;2023-04-24T05:37:43;24.30;;;11.93;;
31004;SDS011;17676;52.254;4.490;2023-04-24T05:40:10;21.45;;;11.85;;
31004;SDS011;17676;52.254;4.490;2023-04-24T05:42:39;24.88;;;11.02;;
31004;SDS011;17676;52.254;4.490;2023-04-24T05:45:05;34.50;;;12.43;;
31004;SDS011;17676;52.254;4.490;2023-04-24T05:47:32;24.60;;;10.93;;
31004;SDS011;17676;52.254;4.490;2023-04-24T05:49:58;24.48;;;11.05;;
31004;SDS011;17676;52.254;4.490;2023-04-24T05:52:23;21.55;;;11.18;;
31004;SDS011;17676;52.254;4.490;2023-04-24T05:54:50;35.83;;;11.50;;
31004;SDS011;17676;52.254;4.490;2023-04-24T05:57:16;28.50;;;12.02;;
31004;SDS011;17676;52.254;4.490;2023-04-24T05:59:41;23.45;;;7.78;;
31004;SDS011;17676;52.254;4.490;2023-04-24T06:02:07;25.17;;;7.15;;
31004;SDS011;17676;52.254;4.490;2023-04-24T06:04:32;29.23;;;8.48;;
31004;SDS011;17676;52.254;4.490;2023-04-24T06:06:59;23.75;;;7.40;;
31004;SDS011;17676;52.254;4.490;2023-04-24T06:09:25;25.77;;;6.75;;
31004;SDS011;17676;52.254;4.490;2023-04-24T06:11:51;37.90;;;7.93;;
31004;SDS011;17676;52.254;4.490;2023-04-24T06:14:21;28.52;;;6.78;;
31004;SDS011;17676;52.254;4.490;2023-04-24T06:16:47;21.10;;;6.40;;
31004;SDS011;17676;52.254;4.490;2023-04-24T06:19:12;18.27;;;5.55;;
31004;SDS011;17676;52.254;4.490;2023-04-24T06:21:38;36.22;;;7.35;;
31004;SDS011;17676;52.254;4.490;2023-04-24T06:24:04;25.10;;;6.03;;
31004;SDS011;17676;52.254;4.490;2023-04-24T06:26:29;24.77;;;5.80;;
31004;SDS011;17676;52.254;4.490;2023-04-24T06:28:55;26.00;;;6.10;;
31004;SDS011;17676;52.254;4.490;2023-04-24T06:31:23;22.38;;;4.90;;
31004;SDS011;17676;52.254;4.490;2023-04-24T06:33:49;21.80;;;5.30;;
31004;SDS011;17676;52.254;4.490;2023-04-24T06:36:15;29.40;;;6.10;;
31004;SDS011;17676;52.254;4.490;2023-04-24T06:38:41;25.17;;;5.88;;
31004;SDS011;17676;52.254;4.490;2023-04-24T06:41:07;26.40;;;5.18;;
31004;SDS011;17676;52.254;4.490;2023-04-24T06:43:32;26.80;;;5.97;;
31004;SDS011;17676;52.254;4.490;2023-04-24T06:45:59;26.25;;;5.55;;
31004;SDS011;17676;52.254;4.490;2023-04-24T06:48:25;24.90;;;5.47;;
31004;SDS011;17676;52.254;4.490;2023-04-24T06:50:52;30.77;;;4.70;;
31004;SDS011;17676;52.254;4.490;2023-04-24T06:53:19;28.17;;;4.63;;
31004;SDS011;17676;52.254;4.490;2023-04-24T06:55:45;23.13;;;3.58;;
31004;SDS011;17676;52.254;4.490;2023-04-24T06:58:11;26.98;;;3.72;;
31004;SDS011;17676;52.254;4.490;2023-04-24T07:00:38;19.05;;;3.25;;
31004;SDS011;17676;52.254;4.490;2023-04-24T07:03:04;33.15;;;3.65;;
31004;SDS011;17676;52.254;4.490;2023-04-24T07:05:32;18.65;;;2.35;;
31004;SDS011;17676;52.254;4.490;2023-04-24T07:08:00;27.55;;;3.45;;
31004;SDS011;17676;52.254;4.490;2023-04-24T07:10:26;23.23;;;2.38;;
31004;SDS011;17676;52.254;4.490;2023-04-24T07:12:53;18.85;;;2.58;;
31004;SDS011;17676;52.254;4.490;2023-04-24T07:15:19;16.02;;;1.92;;
31004;SDS011;17676;52.254;4.490;2023-04-24T07:17:44;15.25;;;1.92;;
31004;SDS011;17676;52.254;4.490;2023-04-24T07:20:10;13.27;;;2.28;;
31004;SDS011;17676;52.254;4.490;2023-04-24T07:22:39;21.52;;;2.03;;
31004;SDS011;17676;52.254;4.490;2023-04-24T07:25:06;19.33;;;2.53;;
31004;SDS011;17676;52.254;4.490;2023-04-24T07:27:32;14.98;;;1.90;;
31004;SDS011;17676;52.254;4.490;2023-04-24T07:29:58;22.38;;;2.22;;
31004;SDS011;17676;52.254;4.490;2023-04-24T07:32:24;11.43;;;1.45;;
31004;SDS011;17676;52.254;4.490;2023-04-24T07:34:51;12.73;;;1.30;;
31004;SDS011;17676;52.254;4.490;2023-04-24T07:37:16;18.95;;;2.38;;
31004;SDS011;17676;52.254;4.490;2023-04-24T07:39:43;17.83;;;1.75;;
31004;SDS011;17676;52.254;4.490;2023-04-24T07:42:09;14.45;;;1.60;;
31004;SDS011;17676;52.254;4.490;2023-04-24T07:44:35;17.83;;;2.17;;
31004;SDS011;17676;52.254;4.490;2023-04-24T07:47:01;17.05;;;1.75;;
31004;SDS011;17676;52.254;4.490;2023-04-24T07:49:27;14.68;;;1.52;;
31004;SDS011;17676;52.254;4.490;2023-04-24T07:51:53;16.02;;;1.40;;
31004;SDS011;17676;52.254;4.490;2023-04-24T07:54:18;16.02;;;2.05;;
31004;SDS011;17676;52.254;4.490;2023-04-24T07:56:44;14.32;;;1.95;;
31004;SDS011;17676;52.254;4.490;2023-04-24T07:59:10;14.35;;;1.55;;
31004;SDS011;17676;52.254;4.490;2023-04-24T08:01:36;20.23;;;2.00;;
31004;SDS011;17676;52.254;4.490;2023-04-24T08:04:02;14.35;;;1.77;;
31004;SDS011;17676;52.254;4.490;2023-04-24T08:06:28;16.85;;;1.58;;
31004;SDS011;17676;52.254;4.490;2023-04-24T08:09:03;16.35;;;1.95;;
31004;SDS011;17676;52.254;4.490;2023-04-24T08:11:28;16.92;;;1.48;;
31004;SDS011;17676;52.254;4.490;2023-04-24T08:13:54;12.10;;;1.30;;
31004;SDS011;17676;52.254;4.490;2023-04-24T08:16:21;10.38;;;1.15;;
31004;SDS011;17676;52.254;4.490;2023-04-24T08:18:48;14.40;;;1.85;;
31004;SDS011;17676;52.254;4.490;2023-04-24T08:21:14;10.50;;;1.40;;
31004;SDS011;17676;52.254;4.490;2023-04-24T08:23:43;13.15;;;1.52;;
31004;SDS011;17676;52.254;4.490;2023-04-24T08:26:10;12.18;;;0.93;;
31004;SDS011;17676;52.254;4.490;2023-04-24T08:28:37;10.63;;;1.15;;
31004;SDS011;17676;52.254;4.490;2023-04-24T08:31:03;8.18;;;1.20;;
31004;SDS011;17676;52.254;4.490;2023-04-24T08:33:29;6.28;;;0.80;;
31004;SDS011;17676;52.254;4.490;2023-04-24T08:36:02;10.00;;;0.90;;
31004;SDS011;17676;52.254;4.490;2023-04-24T08:38:29;8.85;;;1.00;;
31004;SDS011;17676;52.254;4.490;2023-04-24T08:40:56;7.65;;;0.63;;
31004;SDS011;17676;52.254;4.490;2023-04-24T08:43:23;10.93;;;0.82;;
31004;SDS011;17676;52.254;4.490;2023-04-24T08:45:50;8.60;;;0.85;;
31004;SDS011;17676;52.254;4.490;2023-04-24T08:48:16;8.02;;;0.70;;
31004;SDS011;17676;52.254;4.490;2023-04-24T08:50:42;9.68;;;0.50;;
31004;SDS011;17676;52.254;4.490;2023-04-24T08:53:09;6.57;;;0.80;;
31004;SDS011;17676;52.254;4.490;2023-04-24T08:55:35;11.32;;;1.50;;
31004;SDS011;17676;52.254;4.490;2023-04-24T08:58:02;6.80;;;0.77;;
31004;SDS011;17676;52.254;4.490;2023-04-24T09:00:29;11.77;;;0.77;;
31004;SDS011;17676;52.254;4.490;2023-04-24T09:02:55;10.13;;;0.80;;
31004;SDS011;17676;52.254;4.490;2023-04-24T09:05:22;10.18;;;0.70;;
31004;SDS011;17676;52.254;4.490;2023-04-24T09:07:54;6.78;;;0.80;;
31004;SDS011;17676;52.254;4.490;2023-04-24T09:10:23;5.18;;;0.70;;
31004;SDS011;17676;52.254;4.490;2023-04-24T09:12:50;8.70;;;0.40;;
31004;SDS011;17676;52.254;4.490;2023-04-24T09:15:20;10.10;;;0.55;;
31004;SDS011;17676;52.254;4.490;2023-04-24T09:17:47;9.05;;;0.75;;
31004;SDS011;17676;52.254;4.490;2023-04-24T09:20:13;10.90;;;0.55;;
31004;SDS011;17676;52.254;4.490;2023-04-24T09:22:39;5.82;;;0.63;;
31004;SDS011;17676;52.254;4.490;2023-04-24T09:25:08;9.07;;;0.50;;
31004;SDS011;17676;52.254;4.490;2023-04-24T09:27:34;11.05;;;0.40;;
31004;SDS011;17676;52.254;4.490;2023-04-24T09:30:00;6.25;;;0.40;;
31004;SDS011;17676;52.254;4.490;2023-04-24T09:32:27;4.22;;;0.30;;
31004;SDS011;17676;52.254;4.490;2023-04-24T09:35:06;10.52;;;0.43;;
31004;SDS011;17676;52.254;4.490;2023-04-24T09:37:35;5.78;;;0.40;;
31004;SDS011;17676;52.254;4.490;2023-04-24T09:40:10;8.73;;;0.40;;
31004;SDS011;17676;52.254;4.490;2023-04-24T09:42:44;7.25;;;0.65;;
31004;SDS011;17676;52.254;4.490;2023-04-24T09:45:27;11.82;;;0.95;;
31004;SDS011;17676;52.254;4.490;2023-04-24T09:47:54;10.77;;;0.68;;
31004;SDS011;17676;52.254;4.490;2023-04-24T09:50:20;5.00;;;0.20;;
31004;SDS011;17676;52.254;4.490;2023-04-24T09:52:47;7.72;;;0.68;;
31004;SDS011;17676;52.254;4.490;2023-04-24T09:55:22;6.28;;;0.20;;
31004;SDS011;17676;52.254;4.490;2023-04-24T09:57:51;6.75;;;0.25;;
31004;SDS011;17676;52.254;4.490;2023-04-24T10:00:22;12.88;;;0.40;;
31004;SDS011;17676;52.254;4.490;2023-04-24T10:02:53;11.88;;;0.50;;
31004;SDS011;17676;52.254;4.490;2023-04-24T10:05:23;7.35;;;0.50;;
31004;SDS011;17676;52.254;4.490;2023-04-24T10:08:06;11.15;;;0.47;;
31004;SDS011;17676;52.254;4.490;2023-04-24T10:10:39;7.60;;;0.30;;
31004;SDS011;17676;52.254;4.490;2023-04-24T10:13:08;10.43;;;0.50;;
31004;SDS011;17676;52.254;4.490;2023-04-24T10:15:35;11.00;;;0.70;;
31004;SDS011;17676;52.254;4.490;2023-04-24T10:18:02;6.93;;;0.57;;
31004;SDS011;17676;52.254;4.490;2023-04-24T10:20:30;13.70;;;0.57;;
31004;SDS011;17676;52.254;4.490;2023-04-24T10:22:56;6.95;;;0.40;;
31004;SDS011;17676;52.254;4.490;2023-04-24T10:25:27;13.27;;;0.73;;
31004;SDS011;17676;52.254;4.490;2023-04-24T10:27:55;3.92;;;0.30;;
31004;SDS011;17676;52.254;4.490;2023-04-24T10:30:23;8.43;;;0.32;;
31004;SDS011;17676;52.254;4.490;2023-04-24T10:32:49;4.30;;;0.20;;
31004;SDS011;17676;52.254;4.490;2023-04-24T10:35:15;6.53;;;0.20;;
31004;SDS011;17676;52.254;4.490;2023-04-24T10:37:44;3.78;;;0.20;;
31004;SDS011;17676;52.254;4.490;2023-04-24T10:40:18;5.40;;;0.20;;
31004;SDS011;17676;52.254;4.490;2023-04-24T10:42:51;5.25;;;0.38;;
31004;SDS011;17676;52.254;4.490;2023-04-24T10:45:20;5.40;;;0.20;;
31004;SDS011;17676;52.254;4.490;2023-04-24T10:50:46;6.53;;;0.30;;
31004;SDS011;17676;52.254;4.490;2023-04-24T10:53:16;5.13;;;0.52;;
31004;SDS011;17676;52.254;4.490;2023-04-24T10:55:46;6.22;;;0.40;;
31004;SDS011;17676;52.254;4.490;2023-04-24T10:58:13;7.88;;;0.60;;
31004;SDS011;17676;52.254;4.490;2023-04-24T11:00:41;5.85;;;0.60;;
31004;SDS011;17676;52.254;4.490;2023-04-24T11:06:06;5.15;;;0.50;;
31004;SDS011;17676;52.254;4.490;2023-04-24T11:08:42;2.65;;;0.40;;
31004;SDS011;17676;52.254;4.490;2023-04-24T11:11:10;7.38;;;0.40;;
31004;SDS011;17676;52.254;4.490;2023-04-24T11:16:33;10.05;;;0.95;;
31004;SDS011;17676;52.254;4.490;2023-04-24T11:19:20;7.50;;;0.47;;
31004;SDS011;17676;52.254;4.490;2023-04-24T11:21:54;7.97;;;0.50;;
31004;SDS011;17676;52.254;4.490;2023-04-24T11:24:28;7.80;;;0.68;;
31004;SDS011;17676;52.254;4.490;2023-04-24T11:34:59;10.27;;;0.60;;
31004;SDS011;17676;52.254;4.490;2023-04-24T11:37:33;10.68;;;0.85;;
31004;SDS011;17676;52.254;4.490;2023-04-24T11:40:00;7.40;;;0.88;;
31004;SDS011;17676;52.254;4.490;2023-04-24T11:42:26;8.93;;;1.00;;
31004;SDS011;17676;52.254;4.490;2023-04-24T11:44:54;8.07;;;1.15;;
31004;SDS011;17676;52.254;4.490;2023-04-24T11:47:27;9.10;;;0.80;;
31004;SDS011;17676;52.254;4.490;2023-04-24T11:49:54;8.10;;;0.70;;
31004;SDS011;17676;52.254;4.490;2023-04-24T11:52:20;14.93;;;1.20;;
31004;SDS011;17676;52.254;4.490;2023-04-24T11:54:49;16.85;;;1.40;;
31004;SDS011;17676;52.254;4.490;2023-04-24T11:57:15;12.52;;;1.08;;
31004;SDS011;17676;52.254;4.490;2023-04-24T11:59:41;14.85;;;2.13;;
31004;SDS011;17676;52.254;4.490;2023-04-24T12:02:07;18.33;;;1.88;;
31004;SDS011;17676;52.254;4.490;2023-04-24T12:04:39;17.48;;;1.70;;
31004;SDS011;17676;52.254;4.490;2023-04-24T12:07:06;24.90;;;2.83;;
31004;SDS011;17676;52.254;4.490;2023-04-24T12:12:12;15.18;;;1.73;;
31004;SDS011;17676;52.254;4.490;2023-04-24T12:14:50;14.77;;;1.45;;
31004;SDS011;17676;52.254;4.490;2023-04-24T12:17:23;15.68;;;1.80;;
31004;SDS011;17676;52.254;4.490;2023-04-24T12:19:52;12.80;;;1.50;;
31004;SDS011;17676;52.254;4.490;2023-04-24T12:22:18;11.30;;;1.60;;
31004;SDS011;17676;52.254;4.490;2023-04-24T12:24:56;12.30;;;1.67;;
31004;SDS011;17676;52.254;4.490;2023-04-24T12:27:30;17.05;;;1.58;;
31004;SDS011;17676;52.254;4.490;2023-04-24T12:30:03;14.63;;;1.98;;
31004;SDS011;17676;52.254;4.490;2023-04-24T12:32:31;8.48;;;1.17;;
31004;SDS011;17676;52.254;4.490;2023-04-24T12:35:04;9.40;;;1.38;;
31004;SDS011;17676;52.254;4.490;2023-04-24T12:37:32;14.48;;;1.80;;
31004;SDS011;17676;52.254;4.490;2023-04-24T12:40:08;16.88;;;1.55;;
31004;SDS011;17676;52.254;4.490;2023-04-24T12:42:36;11.60;;;2.22;;
31004;SDS011;17676;52.254;4.490;2023-04-24T12:45:08;12.93;;;1.65;;
31004;SDS011;17676;52.254;4.490;2023-04-24T12:47:34;12.10;;;1.30;;
31004;SDS011;17676;52.254;4.490;2023-04-24T12:50:00;16.52;;;1.75;;
31004;SDS011;17676;52.254;4.490;2023-04-24T12:52:29;12.70;;;2.20;;
31004;SDS011;17676;52.254;4.490;2023-04-24T12:54:56;14.02;;;1.45;;
31004;SDS011;17676;52.254;4.490;2023-04-24T12:57:24;11.68;;;1.55;;
31004;SDS011;17676;52.254;4.490;2023-04-24T12:59:50;13.23;;;1.45;;
31004;SDS011;17676;52.254;4.490;2023-04-24T13:02:17;11.85;;;1.70;;
31004;SDS011;17676;52.254;4.490;2023-04-24T13:04:46;14.05;;;2.33;;
31004;SDS011;17676;52.254;4.490;2023-04-24T13:07:12;15.38;;;2.35;;
31004;SDS011;17676;52.254;4.490;2023-04-24T13:09:38;11.23;;;1.67;;
31004;SDS011;17676;52.254;4.490;2023-04-24T13:12:04;17.38;;;1.80;;
31004;SDS011;17676;52.254;4.490;2023-04-24T13:14:30;10.90;;;1.98;;
31004;SDS011;17676;52.254;4.490;2023-04-24T13:16:56;11.50;;;1.33;;
31004;SDS011;17676;52.254;4.490;2023-04-24T13:19:23;12.02;;;1.80;;
31004;SDS011;17676;52.254;4.490;2023-04-24T13:21:50;12.43;;;2.22;;
31004;SDS011;17676;52.254;4.490;2023-04-24T13:24:16;18.77;;;2.17;;
31004;SDS011;17676;52.254;4.490;2023-04-24T13:26:42;11.90;;;1.73;;
31004;SDS011;17676;52.254;4.490;2023-04-24T13:29:07;11.13;;;1.98;;
31004;SDS011;17676;52.254;4.490;2023-04-24T13:31:33;9.70;;;1.40;;
31004;SDS011;17676;52.254;4.490;2023-04-24T13:33:58;9.13;;;1.52;;
31004;SDS011;17676;52.254;4.490;2023-04-24T13:36:24;9.10;;;1.55;;
31004;SDS011;17676;52.254;4.490;2023-04-24T13:38:50;15.05;;;2.10;;
31004;SDS011;17676;52.254;4.490;2023-04-24T13:41:15;12.80;;;1.70;;
31004;SDS011;17676;52.254;4.490;2023-04-24T13:43:41;9.40;;;1.63;;
31004;SDS011;17676;52.254;4.490;2023-04-24T13:46:10;9.23;;;1.35;;
31004;SDS011;17676;52.254;4.490;2023-04-24T13:48:36;15.70;;;2.05;;
31004;SDS011;17676;52.254;4.490;2023-04-24T13:51:01;13.05;;;2.05;;
31004;SDS011;17676;52.254;4.490;2023-04-24T13:53:27;17.08;;;2.22;;
31004;SDS011;17676;52.254;4.490;2023-04-24T13:55:52;18.77;;;2.28;;
31004;SDS011;17676;52.254;4.490;2023-04-24T13:58:18;16.90;;;2.33;;
31004;SDS011;17676;52.254;4.490;2023-04-24T14:00:44;10.93;;;1.67;;
31004;SDS011;17676;52.254;4.490;2023-04-24T14:03:10;18.88;;;3.00;;
31004;SDS011;17676;52.254;4.490;2023-04-24T14:05:39;16.08;;;2.70;;
31004;SDS011;17676;52.254;4.490;2023-04-24T14:08:08;16.02;;;2.33;;
31004;SDS011;17676;52.254;4.490;2023-04-24T14:10:39;14.90;;;2.13;;
31004;SDS011;17676;52.254;4.490;2023-04-24T14:13:05;16.42;;;2.28;;
31004;SDS011;17676;52.254;4.490;2023-04-24T14:15:31;16.73;;;2.70;;
31004;SDS011;17676;52.254;4.490;2023-04-24T14:17:57;13.18;;;2.20;;
31004;SDS011;17676;52.254;4.490;2023-04-24T14:20:22;17.73;;;2.83;;
31004;SDS011;17676;52.254;4.490;2023-04-24T14:22:48;15.43;;;2.67;;
31004;SDS011;17676;52.254;4.490;2023-04-24T14:25:13;16.92;;;2.80;;
31004;SDS011;17676;52.254;4.490;2023-04-24T14:27:38;17.83;;;2.90;;
31004;SDS011;17676;52.254;4.490;2023-04-24T14:30:05;10.90;;;3.05;;
31004;SDS011;17676;52.254;4.490;2023-04-24T14:32:31;13.93;;;2.30;;
31004;SDS011;17676;52.254;4.490;2023-04-24T14:34:56;11.07;;;2.08;;
31004;SDS011;17676;52.254;4.490;2023-04-24T14:37:22;10.85;;;2.05;;
31004;SDS011;17676;52.254;4.490;2023-04-24T14:39:48;9.65;;;1.80;;
31004;SDS011;17676;52.254;4.490;2023-04-24T14:42:13;13.93;;;1.90;;
31004;SDS011;17676;52.254;4.490;2023-04-24T14:44:39;11.02;;;2.50;;
31004;SDS011;17676;52.254;4.490;2023-04-24T14:47:04;15.30;;;2.20;;
31004;SDS011;17676;52.254;4.490;2023-04-24T14:49:30;15.55;;;2.45;;
31004;SDS011;17676;52.254;4.490;2023-04-24T14:51:56;15.23;;;2.42;;
31004;SDS011;17676;52.254;4.490;2023-04-24T14:54:21;16.42;;;2.42;;
31004;SDS011;17676;52.254;4.490;2023-04-24T14:56:48;12.73;;;1.85;;